createdAt,value
2023-01-21T00:00:51.520Z,5.17
2023-01-21T00:03:24.441Z,4.30
2023-01-21T00:05:58.211Z,4.70
2023-01-21T00:08:30.939Z,4.77
2023-01-21T00:11:15.487Z,4.67
2023-01-21T00:13:48.139Z,4.23
2023-01-21T00:16:20.967Z,4.03
2023-01-21T00:18:55.578Z,4.30
2023-01-21T00:21:28.347Z,4.27
2023-01-21T00:24:01.021Z,5.93
2023-01-21T00:26:33.724Z,3.93
2023-01-21T00:29:06.386Z,3.80
2023-01-21T00:31:39.251Z,4.60
2023-01-21T00:34:12.146Z,3.87
2023-01-21T00:36:44.787Z,4.60
2023-01-21T00:39:17.454Z,4.10
2023-01-21T00:41:50.488Z,3.23
2023-01-21T00:44:23.183Z,5.35
2023-01-21T00:46:55.915Z,3.97
2023-01-21T00:49:28.586Z,3.63
2023-01-21T00:52:01.713Z,3.70
2023-01-21T00:54:34.516Z,3.20
2023-01-21T00:57:07.781Z,2.50
2023-01-21T00:59:40.756Z,3.20
2023-01-21T01:02:13.647Z,2.37
2023-01-21T01:04:46.408Z,3.80
2023-01-21T01:07:19.125Z,2.73
2023-01-21T01:09:51.794Z,3.03
2023-01-21T01:12:24.584Z,2.63
2023-01-21T01:14:59.488Z,3.37
2023-01-21T01:17:34.058Z,2.70
2023-01-21T01:20:07.675Z,2.87
2023-01-21T01:22:40.414Z,2.40
2023-01-21T01:25:13.105Z,2.57
2023-01-21T01:27:46.036Z,2.90
2023-01-21T01:30:19.684Z,2.27
2023-01-21T01:32:52.428Z,2.80
2023-01-21T01:35:25.215Z,3.00
2023-01-21T01:37:57.879Z,2.90
2023-01-21T01:40:33.590Z,2.93
2023-01-21T01:43:16.727Z,3.03
2023-01-21T01:45:50.439Z,1.80
2023-01-21T01:48:28.470Z,2.33
2023-01-21T01:51:04.014Z,2.20
2023-01-21T01:53:39.553Z,2.50
2023-01-21T01:56:13.023Z,4.00
2023-01-21T01:58:46.979Z,3.30
2023-01-21T02:01:19.784Z,1.37
2023-01-21T02:03:59.323Z,3.47
2023-01-21T02:06:32.032Z,3.03
2023-01-21T02:09:05.446Z,2.80
2023-01-21T02:11:38.293Z,3.47
2023-01-21T02:14:11.143Z,3.47
2023-01-21T02:16:59.059Z,3.70
2023-01-21T02:19:54.406Z,3.83
2023-01-21T02:22:31.145Z,3.50
2023-01-21T02:25:15.706Z,3.00
2023-01-21T02:28:30.051Z,4.07
2023-01-21T02:31:05.818Z,3.07
2023-01-21T02:33:58.654Z,3.37
2023-01-21T02:37:04.754Z,2.27
2023-01-21T02:39:54.377Z,1.67
2023-01-21T02:42:32.847Z,2.93
2023-01-21T02:45:33.558Z,3.50
2023-01-21T02:48:13.408Z,3.20
2023-01-21T02:50:52.759Z,3.77
2023-01-21T02:53:34.104Z,3.83
2023-01-21T02:56:12.701Z,2.90
2023-01-21T02:58:54.230Z,2.80
2023-01-21T03:01:55.577Z,3.43
2023-01-21T03:04:50.011Z,3.70
2023-01-21T03:07:29.123Z,3.70
2023-01-21T03:10:11.583Z,4.00
2023-01-21T03:12:55.804Z,4.07
2023-01-21T03:16:13.390Z,3.30
2023-01-21T03:18:49.251Z,2.87
2023-01-21T03:21:26.369Z,3.20
2023-01-21T03:24:00.886Z,2.60
2023-01-21T03:26:38.703Z,3.80
2023-01-21T03:29:17.447Z,3.50
2023-01-21T03:31:56.195Z,2.30
2023-01-21T03:34:29.295Z,3.13
2023-01-21T03:37:11.946Z,3.17
2023-01-21T03:39:48.301Z,3.00
2023-01-21T03:42:21.223Z,2.77
2023-01-21T03:44:54.650Z,2.67
2023-01-21T03:47:34.625Z,3.00
2023-01-21T03:50:13.582Z,2.87
2023-01-21T03:52:46.544Z,2.93
2023-01-21T03:55:19.507Z,2.67
2023-01-21T03:57:52.311Z,2.80
2023-01-21T04:00:25.219Z,2.47
2023-01-21T04:02:58.124Z,2.33
2023-01-21T04:05:30.910Z,2.30
2023-01-21T04:08:03.734Z,2.60
2023-01-21T04:10:36.480Z,2.80
2023-01-21T04:13:09.156Z,2.67
2023-01-21T04:15:41.815Z,2.40
2023-01-21T04:18:14.609Z,2.47
2023-01-21T04:20:47.337Z,2.90
2023-01-21T04:23:20.025Z,3.13
2023-01-21T04:25:53.323Z,2.47
2023-01-21T04:28:25.990Z,2.73
2023-01-21T04:30:58.757Z,2.93
2023-01-21T04:33:31.465Z,2.77
2023-01-21T04:36:04.389Z,2.40
2023-01-21T04:38:37.119Z,3.13
2023-01-21T04:41:09.762Z,2.03
2023-01-21T04:43:42.461Z,1.70
2023-01-21T04:46:15.139Z,2.33
2023-01-21T04:48:47.891Z,2.93
2023-01-21T04:51:20.629Z,1.87
2023-01-21T04:53:53.532Z,2.80
2023-01-21T04:56:26.176Z,1.53
2023-01-21T04:58:58.874Z,2.03
2023-01-21T05:01:31.625Z,2.30
2023-01-21T05:04:04.639Z,2.63
2023-01-21T05:06:37.398Z,2.30
2023-01-21T05:09:10.100Z,1.97
2023-01-21T05:11:42.782Z,1.53
2023-01-21T05:14:15.522Z,1.43
2023-01-21T05:16:48.297Z,2.10
2023-01-21T05:19:21.025Z,2.33
2023-01-21T05:21:53.716Z,2.20
2023-01-21T05:24:26.614Z,1.87
2023-01-21T05:26:59.298Z,2.60
2023-01-21T05:29:32.134Z,2.47
2023-01-21T05:32:05.012Z,1.53
2023-01-21T05:34:37.645Z,2.03
2023-01-21T05:37:11.189Z,2.37
2023-01-21T05:39:44.485Z,1.42
2023-01-21T05:42:17.135Z,1.80
2023-01-21T05:44:49.892Z,1.50
2023-01-21T05:47:22.691Z,1.80
2023-01-21T05:49:55.376Z,1.80
2023-01-21T05:52:28.106Z,1.73
2023-01-21T05:55:02.681Z,2.07
2023-01-21T05:57:35.784Z,1.63
2023-01-21T06:00:09.207Z,1.70
2023-01-21T06:02:42.031Z,1.60
2023-01-21T06:05:14.885Z,1.90
2023-01-21T06:07:47.590Z,2.03
2023-01-21T06:10:20.682Z,2.43
2023-01-21T06:12:53.559Z,1.43
2023-01-21T06:15:26.638Z,2.47
2023-01-21T06:18:00.773Z,2.53
2023-01-21T06:20:34.045Z,1.70
2023-01-21T06:23:07.142Z,1.77
2023-01-21T06:25:40.760Z,2.40
2023-01-21T06:28:13.804Z,2.60
2023-01-21T06:30:47.363Z,2.37
2023-01-21T06:33:20.085Z,2.60
2023-01-21T06:35:52.769Z,2.07
2023-01-21T06:38:25.545Z,2.83
2023-01-21T06:40:58.230Z,2.80
2023-01-21T06:43:30.982Z,3.37
2023-01-21T06:46:03.903Z,2.93
2023-01-21T06:48:36.695Z,2.97
2023-01-21T06:51:09.977Z,2.73
2023-01-21T06:53:42.671Z,2.53
2023-01-21T06:56:15.423Z,3.53
2023-01-21T06:58:48.200Z,3.57
2023-01-21T07:01:20.876Z,3.80
2023-01-21T07:03:53.625Z,3.10
2023-01-21T07:06:26.387Z,2.73
2023-01-21T07:08:59.125Z,3.27
2023-01-21T07:11:32.716Z,3.17
2023-01-21T07:14:05.422Z,2.57
2023-01-21T07:16:38.350Z,4.00
2023-01-21T07:19:11.959Z,3.80
2023-01-21T07:21:44.950Z,2.47
2023-01-21T07:24:17.749Z,3.90
2023-01-21T07:26:50.558Z,3.10
2023-01-21T07:29:24.132Z,3.63
2023-01-21T07:31:57.109Z,2.87
2023-01-21T07:34:29.853Z,3.83
2023-01-21T07:37:02.500Z,4.10
2023-01-21T07:39:35.246Z,3.57
2023-01-21T07:42:10.074Z,3.77
2023-01-21T07:44:42.799Z,3.87
2023-01-21T07:47:15.572Z,3.97
2023-01-21T07:49:49.427Z,4.80
2023-01-21T07:52:22.118Z,6.07
2023-01-21T07:58:35.241Z,4.90
2023-01-21T08:01:09.819Z,4.30
2023-01-21T08:03:42.523Z,4.70
2023-01-21T08:06:16.382Z,3.53
2023-01-21T08:08:49.199Z,4.87
2023-01-21T08:11:21.925Z,4.60
2023-01-21T08:13:54.605Z,3.77
2023-01-21T08:16:27.493Z,4.20
2023-01-21T08:19:00.250Z,3.40
2023-01-21T08:21:33.023Z,4.60
2023-01-21T08:24:06.184Z,4.73
2023-01-21T08:26:39.053Z,4.07
2023-01-21T08:29:12.076Z,3.23
2023-01-21T08:31:44.871Z,4.73
2023-01-21T08:34:17.790Z,4.27
2023-01-21T08:36:50.548Z,4.70
2023-01-21T08:39:23.243Z,5.20
2023-01-21T08:41:55.968Z,4.90
2023-01-21T08:44:28.655Z,4.20
2023-01-21T08:47:01.764Z,4.40
2023-01-21T08:49:34.430Z,4.03
2023-01-21T08:52:07.237Z,4.57
2023-01-21T08:54:41.267Z,4.60
2023-01-21T08:57:14.131Z,4.60
2023-01-21T09:01:03.080Z,3.77
2023-01-21T09:09:16.891Z,3.53
2023-01-21T09:11:49.713Z,3.73
2023-01-21T09:14:22.477Z,4.60
2023-01-21T09:16:55.831Z,4.10
2023-01-21T09:19:28.818Z,4.70
2023-01-21T09:22:01.565Z,4.80
2023-01-21T09:24:34.252Z,4.50
2023-01-21T09:27:07.910Z,4.73
2023-01-21T09:29:41.480Z,3.60
2023-01-21T09:32:14.199Z,4.20
2023-01-21T09:34:46.880Z,5.40
2023-01-21T09:37:19.652Z,5.63
2023-01-21T09:39:52.423Z,4.17
2023-01-21T09:42:31.158Z,4.83
2023-01-21T09:45:04.803Z,2.70
2023-01-21T09:47:41.518Z,5.07
2023-01-21T09:50:22.978Z,5.10
2023-01-21T09:53:06.369Z,4.70
2023-01-21T09:55:46.725Z,5.53
2023-01-21T09:58:22.478Z,5.33
2023-01-21T10:01:08.097Z,5.00
2023-01-21T10:03:56.537Z,3.37
2023-01-21T10:07:08.863Z,4.07
2023-01-21T10:09:53.551Z,4.90
2023-01-21T10:12:43.501Z,5.27
2023-01-21T10:15:31.135Z,5.07
2023-01-21T10:18:11.080Z,5.33
2023-01-21T10:20:50.563Z,5.10
2023-01-21T10:23:43.001Z,5.03
2023-01-21T10:26:15.775Z,5.60
2023-01-21T10:28:51.739Z,6.03
2023-01-21T10:31:27.157Z,5.60
2023-01-21T10:33:59.931Z,5.33
2023-01-21T10:36:47.797Z,5.43
2023-01-21T10:39:49.479Z,4.50
2023-01-21T10:42:59.862Z,4.57
2023-01-21T10:45:45.422Z,5.20
2023-01-21T10:48:53.425Z,4.90
2023-01-21T10:51:42.591Z,4.77
2023-01-21T10:54:34.921Z,4.77
2023-01-21T10:57:16.781Z,4.20
2023-01-21T10:59:50.238Z,4.77
2023-01-21T11:02:30.857Z,4.70
2023-01-21T11:05:05.349Z,4.93
2023-01-21T11:07:42.163Z,4.80
2023-01-21T11:10:26.897Z,5.37
2023-01-21T11:12:59.795Z,3.60
2023-01-21T11:15:33.675Z,4.10
2023-01-21T11:18:31.197Z,4.47
2023-01-21T11:21:22.844Z,4.00
2023-01-21T11:24:01.071Z,4.73
2023-01-21T11:26:36.111Z,3.87
2023-01-21T11:29:15.438Z,4.03
2023-01-21T11:31:51.229Z,4.47
2023-01-21T11:34:24.009Z,4.47
2023-01-21T11:37:05.899Z,3.33
2023-01-21T11:39:45.135Z,3.80
2023-01-21T11:42:18.920Z,4.90
2023-01-21T11:45:06.333Z,5.80
2023-01-21T11:47:50.633Z,4.60
2023-01-21T11:50:37.694Z,5.07
2023-01-21T11:53:14.698Z,4.60
2023-01-21T11:55:57.015Z,3.87
2023-01-21T11:58:33.537Z,4.83
2023-01-21T12:01:10.418Z,4.17
2023-01-21T12:03:48.417Z,5.47
2023-01-21T12:06:25.153Z,3.63
2023-01-21T12:09:03.024Z,21.58
2023-01-21T12:11:35.862Z,20.58
2023-01-21T12:14:29.603Z,8.13
2023-01-21T12:17:16.901Z,2.83
2023-01-21T12:20:14.629Z,5.77
2023-01-21T12:23:16.461Z,3.33
2023-01-21T12:25:58.477Z,5.67
2023-01-21T12:28:38.582Z,5.80
2023-01-21T12:31:25.010Z,6.00
2023-01-21T12:34:14.758Z,5.17
2023-01-21T12:36:59.676Z,4.97
2023-01-21T12:39:36.265Z,4.93
2023-01-21T12:42:11.280Z,4.80
2023-01-21T12:44:53.399Z,5.00
2023-01-21T12:47:33.043Z,5.37
2023-01-21T12:50:05.859Z,4.70
2023-01-21T12:52:52.664Z,3.20
2023-01-21T12:55:38.651Z,4.27
2023-01-21T12:58:24.957Z,4.77
2023-01-21T13:01:03.038Z,4.00
2023-01-21T13:04:02.690Z,3.90
2023-01-21T13:06:53.464Z,3.87
2023-01-21T13:09:43.897Z,4.17
2023-01-21T13:12:25.688Z,4.97
2023-01-21T13:15:16.128Z,4.20
2023-01-21T13:17:55.346Z,5.53
2023-01-21T13:20:29.620Z,4.07
2023-01-21T13:23:13.765Z,6.27
2023-01-21T13:26:12.083Z,6.73
2023-01-21T13:29:00.565Z,5.00
2023-01-21T13:31:59.228Z,5.30
2023-01-21T13:34:43.565Z,3.70
2023-01-21T13:37:42.661Z,4.10
2023-01-21T13:40:21.434Z,4.13
2023-01-21T13:43:00.108Z,3.97
2023-01-21T13:45:51.378Z,3.60
2023-01-21T13:48:42.534Z,3.90
2023-01-21T13:51:30.322Z,3.47
2023-01-21T13:54:24.948Z,3.60
2023-01-21T13:57:03.365Z,2.93
2023-01-21T14:00:12.640Z,3.20
2023-01-21T14:02:49.320Z,3.40
2023-01-21T14:05:28.782Z,3.00
2023-01-21T14:08:11.053Z,3.63
2023-01-21T14:11:11.131Z,3.33
2023-01-21T14:13:52.813Z,3.70
2023-01-21T14:16:28.648Z,2.90
2023-01-21T14:19:38.763Z,2.20
2023-01-21T14:22:57.987Z,3.07
2023-01-21T14:25:56.455Z,3.30
2023-01-21T14:29:08.883Z,3.40
2023-01-21T14:31:47.202Z,3.53
2023-01-21T14:34:24.940Z,3.20
2023-01-21T14:37:14.148Z,2.80
2023-01-21T14:40:26.487Z,2.57
2023-01-21T14:42:59.767Z,4.30
2023-01-21T14:45:53.916Z,4.03
2023-01-21T14:48:40.879Z,3.53
2023-01-21T14:51:21.187Z,3.23
2023-01-21T14:54:01.370Z,3.53
2023-01-21T14:56:35.282Z,4.33
2023-01-21T14:59:26.977Z,3.87
2023-01-21T15:02:19.308Z,3.33
2023-01-21T15:05:01.917Z,6.00
2023-01-21T15:07:39.657Z,4.20
2023-01-21T15:10:24.749Z,4.50
2023-01-21T15:13:01.164Z,1.80
2023-01-21T15:15:40.037Z,2.90
2023-01-21T15:18:37.994Z,3.70
2023-01-21T15:21:37.251Z,3.00
2023-01-21T15:24:19.592Z,3.40
2023-01-21T15:27:14.231Z,3.20
2023-01-21T15:30:06.875Z,4.00
2023-01-21T15:32:45.073Z,3.40
2023-01-21T15:35:20.681Z,4.53
2023-01-21T15:38:08.940Z,3.67
2023-01-21T15:40:53.074Z,3.93
2023-01-21T15:43:37.995Z,3.33
2023-01-21T15:46:26.251Z,4.20
2023-01-21T15:49:24.982Z,4.50
2023-01-21T15:52:17.892Z,4.17
2023-01-21T15:55:08.463Z,4.20
2023-01-21T15:57:47.190Z,4.37
2023-01-21T16:00:32.337Z,4.53
2023-01-21T16:03:21.691Z,4.43
2023-01-21T16:06:03.869Z,4.33
2023-01-21T16:08:46.133Z,3.63
2023-01-21T16:11:37.979Z,3.70
2023-01-21T16:14:25.968Z,3.13
2023-01-21T16:17:35.486Z,5.47
2023-01-21T16:20:11.438Z,4.33
2023-01-21T16:22:48.823Z,3.77
2023-01-21T16:25:24.201Z,4.20
2023-01-21T16:27:56.931Z,2.43
2023-01-21T16:30:31.673Z,4.10
2023-01-21T16:33:12.651Z,5.57
2023-01-21T16:35:54.330Z,5.27
2023-01-21T16:38:29.126Z,4.70
2023-01-21T16:41:07.886Z,4.20
2023-01-21T16:43:47.609Z,4.83
2023-01-21T16:46:38.172Z,4.60
2023-01-21T16:49:17.645Z,3.93
2023-01-21T16:51:57.145Z,3.57
2023-01-21T16:54:32.044Z,4.63
2023-01-21T16:57:33.974Z,4.27
2023-01-21T17:00:31.515Z,3.67
2023-01-21T17:03:04.573Z,4.13
2023-01-21T17:05:37.648Z,5.00
2023-01-21T17:08:11.720Z,4.10
2023-01-21T17:11:02.171Z,3.93
2023-01-21T17:13:42.206Z,3.07
2023-01-21T17:16:27.095Z,4.23
2023-01-21T17:19:05.192Z,3.17
2023-01-21T17:21:39.546Z,3.23
2023-01-21T17:24:22.618Z,4.80
2023-01-21T17:27:01.422Z,3.87
2023-01-21T17:29:34.479Z,4.53
2023-01-21T17:32:25.705Z,3.10
2023-01-21T17:35:10.532Z,3.70
2023-01-21T17:38:00.816Z,3.90
2023-01-21T17:40:41.870Z,3.50
2023-01-21T17:43:25.750Z,3.80
2023-01-21T17:45:58.624Z,2.90
2023-01-21T17:48:37.158Z,3.13
2023-01-21T17:51:20.244Z,2.27
2023-01-21T17:54:01.999Z,3.77
2023-01-21T17:56:54.883Z,3.87
2023-01-21T17:59:41.506Z,4.20
2023-01-21T18:02:16.825Z,4.17
2023-01-21T18:04:49.490Z,3.23
2023-01-21T18:07:27.194Z,3.10
2023-01-21T18:10:02.584Z,3.07
2023-01-21T18:12:35.297Z,3.23
2023-01-21T18:15:10.135Z,4.37
2023-01-21T18:17:45.364Z,4.37
2023-01-21T18:20:20.880Z,3.70
2023-01-21T18:22:55.358Z,3.50
2023-01-21T18:25:28.356Z,3.77
2023-01-21T18:28:01.273Z,3.70
2023-01-21T18:30:34.043Z,4.20
2023-01-21T18:33:06.766Z,3.50
2023-01-21T18:35:46.465Z,4.47
2023-01-21T18:38:27.214Z,4.07
2023-01-21T18:41:00.187Z,4.10
2023-01-21T18:43:32.916Z,3.73
2023-01-21T18:46:13.466Z,10.00
2023-01-21T18:48:46.507Z,4.33
2023-01-21T18:51:19.275Z,4.27
2023-01-21T18:53:52.009Z,3.80
2023-01-21T18:56:24.816Z,4.60
2023-01-21T18:58:57.491Z,3.53
2023-01-21T19:01:30.327Z,4.07
2023-01-21T19:04:04.008Z,3.87
2023-01-21T19:06:36.847Z,3.63
2023-01-21T19:09:24.009Z,3.80
2023-01-21T19:11:56.731Z,3.17
2023-01-21T19:14:29.427Z,2.80
2023-01-21T19:17:02.469Z,3.13
2023-01-21T19:19:35.264Z,3.70
2023-01-21T19:22:14.095Z,4.50
2023-01-21T19:24:47.067Z,3.77
2023-01-21T19:27:41.785Z,3.57
2023-01-21T19:30:26.418Z,3.63
2023-01-21T19:33:03.186Z,4.57
2023-01-21T19:35:39.018Z,4.53
2023-01-21T19:38:15.428Z,4.23
2023-01-21T19:40:48.226Z,4.57
2023-01-21T19:43:21.677Z,3.27
2023-01-21T19:45:55.682Z,4.30
2023-01-21T19:48:29.044Z,3.50
2023-01-21T19:51:01.789Z,3.67
2023-01-21T19:53:34.574Z,3.40
2023-01-21T19:56:09.554Z,6.30
2023-01-21T19:58:42.443Z,4.20
2023-01-21T20:01:15.249Z,4.10
2023-01-21T20:03:59.339Z,3.97
2023-01-21T20:06:37.884Z,3.80
2023-01-21T20:09:14.610Z,4.00
2023-01-21T20:11:47.366Z,3.67
2023-01-21T20:14:20.103Z,3.53
2023-01-21T20:16:54.619Z,5.87
2023-01-21T20:19:27.325Z,4.90
2023-01-21T20:22:02.532Z,4.13
2023-01-21T20:24:35.714Z,3.33
2023-01-21T20:27:14.229Z,4.60
2023-01-21T20:29:55.556Z,3.83
2023-01-21T20:32:35.098Z,3.57
2023-01-21T20:35:08.262Z,4.20
2023-01-21T20:37:43.314Z,3.80
2023-01-21T20:40:24.729Z,4.40
2023-01-21T20:42:57.767Z,3.40
2023-01-21T20:45:41.706Z,3.67
2023-01-21T20:48:19.822Z,4.40
2023-01-21T20:50:53.868Z,3.77
2023-01-21T20:53:26.701Z,3.80
2023-01-21T20:56:02.910Z,3.93
2023-01-21T20:58:35.654Z,3.77
2023-01-21T21:01:08.527Z,3.77
2023-01-21T21:03:41.309Z,3.23
2023-01-21T21:06:22.925Z,3.87
2023-01-21T21:08:55.687Z,3.50
2023-01-21T21:11:28.383Z,3.83
2023-01-21T21:14:01.853Z,3.63
2023-01-21T21:16:35.051Z,3.40
2023-01-21T21:19:11.413Z,2.70
2023-01-21T21:21:44.089Z,2.70
2023-01-21T21:24:18.736Z,3.40
2023-01-21T21:26:51.411Z,3.53
2023-01-21T21:29:24.195Z,3.77
2023-01-21T21:31:58.911Z,3.13
2023-01-21T21:34:31.624Z,3.60
2023-01-21T21:37:04.547Z,3.40
2023-01-21T21:39:37.232Z,3.30
2023-01-21T21:42:30.595Z,3.50
2023-01-21T21:45:03.430Z,3.37
2023-01-21T21:47:55.394Z,3.53
2023-01-21T21:50:28.185Z,3.40
2023-01-21T21:53:00.969Z,3.07
2023-01-21T21:55:34.241Z,3.17
2023-01-21T21:58:07.030Z,3.57
2023-01-21T22:00:39.778Z,3.20
2023-01-21T22:03:12.797Z,3.27
2023-01-21T22:05:53.946Z,2.97
2023-01-21T22:08:29.214Z,4.40
2023-01-21T22:11:04.666Z,3.27
2023-01-21T22:13:40.151Z,3.10
2023-01-21T22:16:32.656Z,2.90
2023-01-21T22:19:05.401Z,3.63
2023-01-21T22:21:38.281Z,3.33
2023-01-21T22:24:11.373Z,3.80
2023-01-21T22:26:44.036Z,3.67
2023-01-21T22:29:16.747Z,3.07
2023-01-21T22:31:49.546Z,3.67
2023-01-21T22:34:22.398Z,3.60
2023-01-21T22:36:55.189Z,5.10
2023-01-21T22:39:27.985Z,4.00
2023-01-21T22:42:03.017Z,3.87
2023-01-21T22:44:35.843Z,4.10
2023-01-21T22:47:08.632Z,4.10
2023-01-21T22:49:42.393Z,4.20
2023-01-21T22:52:15.151Z,3.27
2023-01-21T22:54:49.569Z,3.73
2023-01-21T22:57:22.907Z,5.18
2023-01-21T22:59:55.737Z,3.87
2023-01-21T23:02:28.564Z,3.60
2023-01-21T23:05:01.316Z,3.53
2023-01-21T23:07:34.124Z,3.77
2023-01-21T23:10:07.220Z,3.60
2023-01-21T23:12:40.018Z,3.83
2023-01-21T23:15:12.687Z,3.47
2023-01-21T23:17:45.426Z,3.83
2023-01-21T23:20:19.276Z,3.73
2023-01-21T23:22:53.977Z,5.47
2023-01-21T23:25:26.669Z,3.87
2023-01-21T23:27:59.475Z,3.87
2023-01-21T23:30:33.434Z,4.87
2023-01-21T23:33:06.297Z,4.07
2023-01-21T23:35:39.175Z,3.53
2023-01-21T23:38:11.970Z,3.77
2023-01-21T23:40:44.621Z,4.07
2023-01-21T23:43:17.293Z,3.37
2023-01-21T23:45:49.992Z,3.70
2023-01-21T23:48:23.044Z,3.87
2023-01-21T23:51:03.627Z,3.90
2023-01-21T23:53:36.330Z,3.60
2023-01-21T23:56:29.299Z,4.17
2023-01-21T23:59:02.040Z,4.23
